sensor_id;sensor_type;location;lat;lon;timestamp;pressure;altitude;pressure_sealevel;temperature;humidity
39051;BME280;24805;55.852;37.644;2023-03-18T00:03:18;101042.06;;;-1.49;41.06
39051;BME280;24805;55.852;37.644;2023-03-18T00:08:20;101036.19;;;-1.54;41.50
39051;BME280;24805;55.852;37.644;2023-03-18T00:13:22;101045.09;;;-1.60;41.38
39051;BME280;24805;55.852;37.644;2023-03-18T00:18:25;101048.88;;;-1.67;41.95
39051;BME280;24805;55.852;37.644;2023-03-18T00:23:27;101036.22;;;-1.76;41.64
39051;BME280;24805;55.852;37.644;2023-03-18T00:28:30;101050.81;;;-1.72;41.49
39051;BME280;24805;55.852;37.644;2023-03-18T00:33:32;101054.31;;;-1.73;41.81
39051;BME280;24805;55.852;37.644;2023-03-18T00:38:35;101049.22;;;-1.76;42.48
39051;BME280;24805;55.852;37.644;2023-03-18T00:43:40;101046.75;;;-1.79;42.19
39051;BME280;24805;55.852;37.644;2023-03-18T00:48:55;101051.31;;;-1.84;42.32
39051;BME280;24805;55.852;37.644;2023-03-18T00:54:00;101065.28;;;-1.87;42.90
39051;BME280;24805;55.852;37.644;2023-03-18T00:59:03;101066.38;;;-1.92;43.03
39051;BME280;24805;55.852;37.644;2023-03-18T01:04:07;101062.97;;;-1.94;43.23
39051;BME280;24805;55.852;37.644;2023-03-18T01:09:09;101068.34;;;-1.99;43.34
39051;BME280;24805;55.852;37.644;2023-03-18T01:14:14;101070.25;;;-2.02;43.42
39051;BME280;24805;55.852;37.644;2023-03-18T01:19:17;101081.50;;;-2.02;42.98
39051;BME280;24805;55.852;37.644;2023-03-18T01:24:19;101082.41;;;-2.03;43.45
39051;BME280;24805;55.852;37.644;2023-03-18T01:29:21;101082.47;;;-2.04;43.75
39051;BME280;24805;55.852;37.644;2023-03-18T01:34:24;101092.88;;;-2.04;44.10
39051;BME280;24805;55.852;37.644;2023-03-18T01:39:27;101092.72;;;-2.00;43.66
39051;BME280;24805;55.852;37.644;2023-03-18T01:44:29;101100.31;;;-1.95;44.13
39051;BME280;24805;55.852;37.644;2023-03-18T01:49:37;101099.34;;;-1.93;44.14
39051;BME280;24805;55.852;37.644;2023-03-18T01:54:47;101098.88;;;-2.02;44.44
39051;BME280;24805;55.852;37.644;2023-03-18T01:59:51;101110.28;;;-2.06;44.14
39051;BME280;24805;55.852;37.644;2023-03-18T02:04:57;101120.59;;;-2.03;44.89
39051;BME280;24805;55.852;37.644;2023-03-18T02:10:06;101115.19;;;-1.99;44.20
39051;BME280;24805;55.852;37.644;2023-03-18T02:15:17;101126.16;;;-1.91;43.65
39051;BME280;24805;55.852;37.644;2023-03-18T02:30:52;101145.09;;;-1.65;43.22
39051;BME280;24805;55.852;37.644;2023-03-18T02:36:01;101148.38;;;-1.60;43.81
39051;BME280;24805;55.852;37.644;2023-03-18T02:41:22;101128.69;;;-1.67;43.36
39051;BME280;24805;55.852;37.644;2023-03-18T02:51:37;101169.38;;;-1.65;42.78
39051;BME280;24805;55.852;37.644;2023-03-18T02:56:40;101164.28;;;-1.68;43.33
39051;BME280;24805;55.852;37.644;2023-03-18T03:01:45;101158.41;;;-1.73;43.25
39051;BME280;24805;55.852;37.644;2023-03-18T03:06:49;101173.91;;;-1.70;42.53
39051;BME280;24805;55.852;37.644;2023-03-18T03:11:57;101185.03;;;-1.66;42.77
39051;BME280;24805;55.852;37.644;2023-03-18T03:17:01;101185.94;;;-1.67;42.40
39051;BME280;24805;55.852;37.644;2023-03-18T03:22:03;101187.69;;;-1.68;43.79
39051;BME280;24805;55.852;37.644;2023-03-18T03:27:06;101184.41;;;-1.73;43.21
39051;BME280;24805;55.852;37.644;2023-03-18T03:32:08;101189.69;;;-1.75;43.27
39051;BME280;24805;55.852;37.644;2023-03-18T03:37:10;101179.44;;;-1.79;42.76
39051;BME280;24805;55.852;37.644;2023-03-18T03:42:13;101188.03;;;-1.77;42.90
39051;BME280;24805;55.852;37.644;2023-03-18T03:47:16;101194.09;;;-1.77;43.61
39051;BME280;24805;55.852;37.644;2023-03-18T03:52:19;101190.63;;;-1.77;43.36
39051;BME280;24805;55.852;37.644;2023-03-18T03:57:22;101200.94;;;-1.74;43.56
39051;BME280;24805;55.852;37.644;2023-03-18T04:02:25;101192.97;;;-1.69;43.47
39051;BME280;24805;55.852;37.644;2023-03-18T04:07:30;101198.91;;;-1.66;43.22
39051;BME280;24805;55.852;37.644;2023-03-18T04:12:32;101207.28;;;-1.59;43.23
39051;BME280;24805;55.852;37.644;2023-03-18T04:17:35;101206.28;;;-1.55;43.62
39051;BME280;24805;55.852;37.644;2023-03-18T04:22:38;101210.41;;;-1.50;43.29
39051;BME280;24805;55.852;37.644;2023-03-18T04:27:42;101211.09;;;-1.45;43.36
39051;BME280;24805;55.852;37.644;2023-03-18T04:32:47;101218.84;;;-1.43;42.66
39051;BME280;24805;55.852;37.644;2023-03-18T04:37:50;101221.97;;;-1.35;43.05
39051;BME280;24805;55.852;37.644;2023-03-18T04:42:53;101231.13;;;-1.25;42.89
39051;BME280;24805;55.852;37.644;2023-03-18T04:47:58;101222.88;;;-1.14;43.00
39051;BME280;24805;55.852;37.644;2023-03-18T04:53:05;101231.81;;;-0.99;42.60
39051;BME280;24805;55.852;37.644;2023-03-18T04:58:07;101229.22;;;-0.39;42.32
39051;BME280;24805;55.852;37.644;2023-03-18T05:03:14;101235.03;;;0.99;40.55
39051;BME280;24805;55.852;37.644;2023-03-18T05:08:17;101230.06;;;2.28;38.64
39051;BME280;24805;55.852;37.644;2023-03-18T05:13:20;101237.53;;;3.43;36.58
39051;BME280;24805;55.852;37.644;2023-03-18T05:18:23;101236.56;;;4.31;35.40
39051;BME280;24805;55.852;37.644;2023-03-18T05:23:27;101232.47;;;4.80;34.35
39051;BME280;24805;55.852;37.644;2023-03-18T05:28:31;101242.38;;;5.56;32.78
39051;BME280;24805;55.852;37.644;2023-03-18T05:33:44;101244.44;;;6.52;31.40
39051;BME280;24805;55.852;37.644;2023-03-18T05:38:48;101255.53;;;7.40;30.67
39051;BME280;24805;55.852;37.644;2023-03-18T05:43:51;101246.56;;;8.22;29.26
39051;BME280;24805;55.852;37.644;2023-03-18T05:48:53;101246.75;;;8.86;28.22
39051;BME280;24805;55.852;37.644;2023-03-18T05:53:59;101245.75;;;8.98;27.69
39051;BME280;24805;55.852;37.644;2023-03-18T05:59:06;101252.03;;;9.71;26.72
39051;BME280;24805;55.852;37.644;2023-03-18T06:04:16;101267.28;;;9.79;26.21
39051;BME280;24805;55.852;37.644;2023-03-18T06:09:20;101267.31;;;10.09;25.87
39051;BME280;24805;55.852;37.644;2023-03-18T06:14:23;101262.78;;;10.61;25.03
39051;BME280;24805;55.852;37.644;2023-03-18T06:19:33;101260.06;;;11.97;23.83
39051;BME280;24805;55.852;37.644;2023-03-18T06:24:36;101263.38;;;13.19;23.19
39051;BME280;24805;55.852;37.644;2023-03-18T06:29:39;101265.38;;;14.38;21.83
39051;BME280;24805;55.852;37.644;2023-03-18T06:34:47;101275.69;;;15.41;20.52
39051;BME280;24805;55.852;37.644;2023-03-18T06:39:50;101275.69;;;15.41;19.91
39051;BME280;24805;55.852;37.644;2023-03-18T06:44:52;101267.13;;;15.22;19.70
39051;BME280;24805;55.852;37.644;2023-03-18T06:50:04;101271.81;;;16.17;18.92
39051;BME280;24805;55.852;37.644;2023-03-18T06:55:10;101277.13;;;16.25;18.44
39051;BME280;24805;55.852;37.644;2023-03-18T07:00:16;101278.78;;;16.81;17.95
39051;BME280;24805;55.852;37.644;2023-03-18T07:05:19;101269.47;;;17.46;16.78
39051;BME280;24805;55.852;37.644;2023-03-18T07:10:24;101276.94;;;18.84;16.32
39051;BME280;24805;55.852;37.644;2023-03-18T07:15:34;101267.59;;;20.15;15.21
39051;BME280;24805;55.852;37.644;2023-03-18T07:20:37;101274.22;;;20.94;13.93
39051;BME280;24805;55.852;37.644;2023-03-18T07:25:39;101267.69;;;21.89;13.44
39051;BME280;24805;55.852;37.644;2023-03-18T07:30:42;101262.47;;;23.48;12.10
39051;BME280;24805;55.852;37.644;2023-03-18T07:35:45;101270.72;;;24.83;11.36
39051;BME280;24805;55.852;37.644;2023-03-18T07:40:47;101264.66;;;25.82;10.55
39051;BME280;24805;55.852;37.644;2023-03-18T07:45:50;101262.16;;;25.81;10.09
39051;BME280;24805;55.852;37.644;2023-03-18T07:50:52;101261.69;;;26.19;8.84
39051;BME280;24805;55.852;37.644;2023-03-18T07:55:54;101262.28;;;25.21;9.19
39051;BME280;24805;55.852;37.644;2023-03-18T08:00:56;101261.16;;;24.80;9.62
39051;BME280;24805;55.852;37.644;2023-03-18T08:06:00;101268.22;;;24.08;9.61
39051;BME280;24805;55.852;37.644;2023-03-18T08:11:03;101256.56;;;24.08;9.70
39051;BME280;24805;55.852;37.644;2023-03-18T08:16:06;101251.84;;;24.58;8.80
39051;BME280;24805;55.852;37.644;2023-03-18T08:21:08;101252.59;;;25.13;7.85
39051;BME280;24805;55.852;37.644;2023-03-18T08:26:11;101262.72;;;24.58;7.82
39051;BME280;24805;55.852;37.644;2023-03-18T08:31:13;101252.28;;;24.73;7.91
39051;BME280;24805;55.852;37.644;2023-03-18T08:36:16;101257.03;;;24.41;8.04
39051;BME280;24805;55.852;37.644;2023-03-18T08:41:18;101251.22;;;25.34;7.47
39051;BME280;24805;55.852;37.644;2023-03-18T08:46:20;101260.16;;;26.11;7.57
39051;BME280;24805;55.852;37.644;2023-03-18T08:51:22;101250.75;;;25.37;7.26
39051;BME280;24805;55.852;37.644;2023-03-18T08:56:25;101251.59;;;25.37;7.26
39051;BME280;24805;55.852;37.644;2023-03-18T09:01:28;101232.81;;;25.36;7.20
39051;BME280;24805;55.852;37.644;2023-03-18T09:06:32;101226.13;;;25.09;7.28
39051;BME280;24805;55.852;37.644;2023-03-18T09:11:34;101221.97;;;26.06;6.79
39051;BME280;24805;55.852;37.644;2023-03-18T09:16:37;101224.72;;;26.58;6.24
39051;BME280;24805;55.852;37.644;2023-03-18T09:21:39;101227.66;;;27.58;6.04
39051;BME280;24805;55.852;37.644;2023-03-18T09:26:41;101213.34;;;25.86;6.48
39051;BME280;24805;55.852;37.644;2023-03-18T09:31:43;101213.31;;;23.94;6.54
39051;BME280;24805;55.852;37.644;2023-03-18T09:36:45;101212.16;;;22.64;7.08
39051;BME280;24805;55.852;37.644;2023-03-18T09:58:42;101193.06;;;26.28;7.54
39051;BME280;24805;55.852;37.644;2023-03-18T10:04:01;101180.09;;;26.59;7.20
39051;BME280;24805;55.852;37.644;2023-03-18T10:19:45;101175.31;;;24.37;7.25
39051;BME280;24805;55.852;37.644;2023-03-18T10:35:25;101158.47;;;26.52;7.43
39051;BME280;24805;55.852;37.644;2023-03-18T10:40:37;101162.00;;;28.20;6.60
39051;BME280;24805;55.852;37.644;2023-03-18T10:45:41;101151.44;;;27.85;6.16
39051;BME280;24805;55.852;37.644;2023-03-18T10:51:28;101155.34;;;29.93;6.76
39051;BME280;24805;55.852;37.644;2023-03-18T10:56:34;101137.00;;;29.46;6.05
39051;BME280;24805;55.852;37.644;2023-03-18T11:01:37;101138.75;;;29.62;5.77
39051;BME280;24805;55.852;37.644;2023-03-18T11:06:59;101134.09;;;30.10;5.70
39051;BME280;24805;55.852;37.644;2023-03-18T11:17:34;101133.22;;;29.99;5.92
39051;BME280;24805;55.852;37.644;2023-03-18T11:22:44;101130.69;;;28.50;5.92
39051;BME280;24805;55.852;37.644;2023-03-18T11:27:57;101123.72;;;27.38;6.86
39051;BME280;24805;55.852;37.644;2023-03-18T11:33:14;101123.59;;;26.94;7.02
39051;BME280;24805;55.852;37.644;2023-03-18T11:38:25;101119.88;;;25.52;7.54
39051;BME280;24805;55.852;37.644;2023-03-18T11:43:29;101087.03;;;25.41;7.43
39051;BME280;24805;55.852;37.644;2023-03-18T11:48:39;101109.03;;;25.63;7.07
39051;BME280;24805;55.852;37.644;2023-03-18T12:14:36;101094.22;;;22.95;8.29
39051;BME280;24805;55.852;37.644;2023-03-18T12:20:00;101090.72;;;23.13;8.53
39051;BME280;24805;55.852;37.644;2023-03-18T12:25:22;101084.41;;;23.19;8.05
39051;BME280;24805;55.852;37.644;2023-03-18T12:31:05;101077.56;;;23.96;8.79
39051;BME280;24805;55.852;37.644;2023-03-18T12:36:49;101070.38;;;22.16;8.99
39051;BME280;24805;55.852;37.644;2023-03-18T12:57:41;101049.13;;;20.16;9.53
39051;BME280;24805;55.852;37.644;2023-03-18T13:02:46;101032.56;;;19.65;9.43
39051;BME280;24805;55.852;37.644;2023-03-18T13:13:08;101039.22;;;18.79;9.72
39051;BME280;24805;55.852;37.644;2023-03-18T13:18:16;101036.03;;;19.18;9.87
39051;BME280;24805;55.852;37.644;2023-03-18T13:23:26;101024.84;;;19.21;9.78
39051;BME280;24805;55.852;37.644;2023-03-18T13:44:35;101018.25;;;17.89;10.23
39051;BME280;24805;55.852;37.644;2023-03-18T13:49:38;101009.78;;;16.97;11.01
39051;BME280;24805;55.852;37.644;2023-03-18T13:54:42;100993.97;;;16.65;10.92
39051;BME280;24805;55.852;37.644;2023-03-18T13:59:46;100999.16;;;16.20;10.97
39051;BME280;24805;55.852;37.644;2023-03-18T14:04:50;101004.03;;;15.55;11.72
39051;BME280;24805;55.852;37.644;2023-03-18T14:10:06;101000.69;;;15.06;12.06
39051;BME280;24805;55.852;37.644;2023-03-18T14:20:38;100992.47;;;13.35;13.21
39051;BME280;24805;55.852;37.644;2023-03-18T14:25:42;100987.63;;;12.18;14.34
39051;BME280;24805;55.852;37.644;2023-03-18T14:30:47;100982.53;;;11.24;13.73
39051;BME280;24805;55.852;37.644;2023-03-18T14:40:59;100992.47;;;9.89;14.50
39051;BME280;24805;55.852;37.644;2023-03-18T14:46:06;100972.97;;;9.40;14.96
39051;BME280;24805;55.852;37.644;2023-03-18T14:51:19;100984.38;;;9.01;14.92
39051;BME280;24805;55.852;37.644;2023-03-18T14:56:24;100986.16;;;8.49;15.85
39051;BME280;24805;55.852;37.644;2023-03-18T15:01:46;100975.78;;;8.25;14.84
39051;BME280;24805;55.852;37.644;2023-03-18T15:06:55;100983.03;;;7.80;14.87
39051;BME280;24805;55.852;37.644;2023-03-18T15:12:15;100973.97;;;7.50;15.12
39051;BME280;24805;55.852;37.644;2023-03-18T15:17:17;100983.47;;;7.31;15.56
39051;BME280;24805;55.852;37.644;2023-03-18T15:22:21;100968.88;;;7.15;15.45
39051;BME280;24805;55.852;37.644;2023-03-18T15:27:31;100974.00;;;7.06;15.88
39051;BME280;24805;55.852;37.644;2023-03-18T15:32:46;100970.41;;;6.96;15.81
39051;BME280;24805;55.852;37.644;2023-03-18T15:43:17;100965.41;;;6.46;16.50
39051;BME280;24805;55.852;37.644;2023-03-18T15:48:31;100966.47;;;6.33;16.02
39051;BME280;24805;55.852;37.644;2023-03-18T15:53:41;100969.53;;;6.15;16.49
39051;BME280;24805;55.852;37.644;2023-03-18T15:58:57;100966.94;;;6.03;17.09
39051;BME280;24805;55.852;37.644;2023-03-18T16:04:02;100968.84;;;5.77;17.51
39051;BME280;24805;55.852;37.644;2023-03-18T16:09:17;100972.41;;;5.76;16.77
39051;BME280;24805;55.852;37.644;2023-03-18T16:14:22;100971.34;;;5.54;17.66
39051;BME280;24805;55.852;37.644;2023-03-18T16:19:27;100975.16;;;5.38;17.78
39051;BME280;24805;55.852;37.644;2023-03-18T16:24:29;100967.28;;;5.25;17.80
39051;BME280;24805;55.852;37.644;2023-03-18T16:29:34;100967.94;;;5.16;18.11
39051;BME280;24805;55.852;37.644;2023-03-18T16:34:38;100964.47;;;5.03;18.62
39051;BME280;24805;55.852;37.644;2023-03-18T16:39:40;100968.81;;;4.91;18.59
39051;BME280;24805;55.852;37.644;2023-03-18T16:44:42;100970.38;;;4.81;19.03
39051;BME280;24805;55.852;37.644;2023-03-18T16:49:44;100966.69;;;5.09;17.52
39051;BME280;24805;55.852;37.644;2023-03-18T16:54:46;100953.66;;;4.69;18.88
39051;BME280;24805;55.852;37.644;2023-03-18T16:59:52;100939.88;;;4.40;19.55
39051;BME280;24805;55.852;37.644;2023-03-18T17:04:57;100951.22;;;4.41;19.88
39051;BME280;24805;55.852;37.644;2023-03-18T17:09:59;100953.84;;;4.28;19.92
39051;BME280;24805;55.852;37.644;2023-03-18T17:15:02;100946.47;;;4.21;20.63
39051;BME280;24805;55.852;37.644;2023-03-18T17:20:20;100956.56;;;4.27;20.33
39051;BME280;24805;55.852;37.644;2023-03-18T17:25:25;100959.66;;;4.06;21.26
39051;BME280;24805;55.852;37.644;2023-03-18T17:30:39;100958.72;;;4.07;20.76
39051;BME280;24805;55.852;37.644;2023-03-18T17:35:41;100946.72;;;3.91;21.72
39051;BME280;24805;55.852;37.644;2023-03-18T17:40:44;100951.31;;;3.87;22.02
39051;BME280;24805;55.852;37.644;2023-03-18T17:45:48;100954.66;;;3.76;22.63
39051;BME280;24805;55.852;37.644;2023-03-18T17:50:56;100956.63;;;3.73;22.92
39051;BME280;24805;55.852;37.644;2023-03-18T17:56:00;100957.31;;;3.62;23.50
39051;BME280;24805;55.852;37.644;2023-03-18T18:01:09;100959.41;;;3.57;23.57
39051;BME280;24805;55.852;37.644;2023-03-18T18:06:19;100964.56;;;3.44;23.35
39051;BME280;24805;55.852;37.644;2023-03-18T18:11:24;100963.94;;;3.27;23.99
39051;BME280;24805;55.852;37.644;2023-03-18T18:16:27;100965.28;;;3.05;24.18
39051;BME280;24805;55.852;37.644;2023-03-18T18:21:29;100965.19;;;2.93;24.37
39051;BME280;24805;55.852;37.644;2023-03-18T18:26:31;100966.97;;;2.78;24.79
39051;BME280;24805;55.852;37.644;2023-03-18T18:31:34;100960.59;;;2.68;25.57
39051;BME280;24805;55.852;37.644;2023-03-18T18:36:36;100969.09;;;2.57;25.92
39051;BME280;24805;55.852;37.644;2023-03-18T18:41:39;100963.56;;;2.48;25.97
39051;BME280;24805;55.852;37.644;2023-03-18T18:46:41;100962.44;;;2.37;26.63
39051;BME280;24805;55.852;37.644;2023-03-18T18:51:43;100954.34;;;2.26;27.04
39051;BME280;24805;55.852;37.644;2023-03-18T18:56:45;100944.34;;;2.19;27.48
39051;BME280;24805;55.852;37.644;2023-03-18T19:01:49;100960.88;;;2.19;28.00
39051;BME280;24805;55.852;37.644;2023-03-18T19:06:52;100954.41;;;2.11;28.86
39051;BME280;24805;55.852;37.644;2023-03-18T19:11:54;100936.88;;;1.97;28.80
39051;BME280;24805;55.852;37.644;2023-03-18T19:16:58;100943.97;;;1.95;29.80
39051;BME280;24805;55.852;37.644;2023-03-18T19:22:00;100939.16;;;1.87;29.98
39051;BME280;24805;55.852;37.644;2023-03-18T19:27:09;100932.31;;;1.85;30.30
39051;BME280;24805;55.852;37.644;2023-03-18T19:32:16;100929.03;;;1.81;30.19
39051;BME280;24805;55.852;37.644;2023-03-18T19:37:27;100922.41;;;1.76;30.91
39051;BME280;24805;55.852;37.644;2023-03-18T19:42:30;100897.53;;;1.53;31.37
39051;BME280;24805;55.852;37.644;2023-03-18T19:47:34;100911.38;;;1.55;31.83
39051;BME280;24805;55.852;37.644;2023-03-18T19:52:36;100901.25;;;1.49;32.19
39051;BME280;24805;55.852;37.644;2023-03-18T19:57:39;100904.88;;;1.46;32.16
39051;BME280;24805;55.852;37.644;2023-03-18T20:02:41;100903.28;;;1.44;32.63
39051;BME280;24805;55.852;37.644;2023-03-18T20:07:44;100899.97;;;1.40;32.91
39051;BME280;24805;55.852;37.644;2023-03-18T20:12:50;100896.34;;;1.43;32.79
39051;BME280;24805;55.852;37.644;2023-03-18T20:17:52;100891.41;;;1.38;32.76
39051;BME280;24805;55.852;37.644;2023-03-18T20:22:57;100891.31;;;1.40;32.79
39051;BME280;24805;55.852;37.644;2023-03-18T20:28:00;100881.28;;;1.32;32.93
39051;BME280;24805;55.852;37.644;2023-03-18T20:33:03;100883.81;;;1.33;33.38
39051;BME280;24805;55.852;37.644;2023-03-18T20:43:34;100884.06;;;1.29;32.73
39051;BME280;24805;55.852;37.644;2023-03-18T20:48:36;100885.25;;;1.23;32.97
39051;BME280;24805;55.852;37.644;2023-03-18T20:53:39;100890.22;;;1.28;32.41
39051;BME280;24805;55.852;37.644;2023-03-18T20:58:41;100874.22;;;1.18;32.44
39051;BME280;24805;55.852;37.644;2023-03-18T21:03:43;100886.09;;;1.24;32.38
39051;BME280;24805;55.852;37.644;2023-03-18T21:08:45;100878.53;;;1.19;32.86
39051;BME280;24805;55.852;37.644;2023-03-18T21:13:47;100869.91;;;1.17;32.63
39051;BME280;24805;55.852;37.644;2023-03-18T21:18:50;100873.03;;;1.08;32.48
39051;BME280;24805;55.852;37.644;2023-03-18T21:23:52;100863.56;;;1.06;32.65
39051;BME280;24805;55.852;37.644;2023-03-18T21:28:56;100866.34;;;1.02;32.35
39051;BME280;24805;55.852;37.644;2023-03-18T21:33:58;100864.00;;;0.98;32.25
39051;BME280;24805;55.852;37.644;2023-03-18T21:39:01;100858.03;;;0.96;32.74
39051;BME280;24805;55.852;37.644;2023-03-18T21:44:03;100854.72;;;0.92;32.17
39051;BME280;24805;55.852;37.644;2023-03-18T21:49:06;100850.84;;;0.84;32.80
39051;BME280;24805;55.852;37.644;2023-03-18T21:54:17;100855.81;;;0.88;32.18
39051;BME280;24805;55.852;37.644;2023-03-18T21:59:19;100847.53;;;0.80;32.94
39051;BME280;24805;55.852;37.644;2023-03-18T22:04:21;100852.34;;;0.72;33.14
39051;BME280;24805;55.852;37.644;2023-03-18T22:09:24;100854.22;;;0.70;33.32
39051;BME280;24805;55.852;37.644;2023-03-18T22:14:27;100853.75;;;0.62;33.56
39051;BME280;24805;55.852;37.644;2023-03-18T22:19:29;100859.06;;;0.60;32.85
39051;BME280;24805;55.852;37.644;2023-03-18T22:24:31;100856.63;;;0.57;33.15
39051;BME280;24805;55.852;37.644;2023-03-18T22:29:33;100855.72;;;0.58;33.42
39051;BME280;24805;55.852;37.644;2023-03-18T22:34:35;100839.97;;;0.60;32.91
39051;BME280;24805;55.852;37.644;2023-03-18T22:39:38;100841.06;;;0.56;33.31
39051;BME280;24805;55.852;37.644;2023-03-18T22:44:40;100833.63;;;0.48;33.79
39051;BME280;24805;55.852;37.644;2023-03-18T22:49:42;100830.16;;;0.48;33.95
39051;BME280;24805;55.852;37.644;2023-03-18T22:54:46;100831.31;;;0.42;34.37
39051;BME280;24805;55.852;37.644;2023-03-18T22:59:48;100837.56;;;0.40;34.29
39051;BME280;24805;55.852;37.644;2023-03-18T23:04:51;100830.06;;;0.33;34.46
39051;BME280;24805;55.852;37.644;2023-03-18T23:09:56;100820.53;;;0.32;34.14
39051;BME280;24805;55.852;37.644;2023-03-18T23:14:58;100818.25;;;0.26;34.08
39051;BME280;24805;55.852;37.644;2023-03-18T23:20:00;100811.47;;;0.22;34.02
39051;BME280;24805;55.852;37.644;2023-03-18T23:25:04;100806.44;;;0.19;34.63
39051;BME280;24805;55.852;37.644;2023-03-18T23:30:06;100804.47;;;0.07;34.88
39051;BME280;24805;55.852;37.644;2023-03-18T23:35:09;100796.72;;;0.06;35.30
39051;BME280;24805;55.852;37.644;2023-03-18T23:40:12;100795.78;;;0.07;35.08
39051;BME280;24805;55.852;37.644;2023-03-18T23:45:14;100791.72;;;0.01;35.00
39051;BME280;24805;55.852;37.644;2023-03-18T23:50:17;100781.72;;;-0.07;35.42
39051;BME280;24805;55.852;37.644;2023-03-18T23:55:19;100775.03;;;-0.12;35.51
